sensor_id;sensor_type;location;lat;lon;timestamp;pressure;altitude;pressure_sealevel;temperature;humidity
53908;BME280;40469;47.998;7.794;2023-01-05T00:02:15;99765.47;;;10.19;100.00
53908;BME280;40469;47.998;7.794;2023-01-05T00:04:40;99763.72;;;10.18;100.00
53908;BME280;40469;47.998;7.794;2023-01-05T00:07:05;99753.31;;;10.24;100.00
53908;BME280;40469;47.998;7.794;2023-01-05T00:09:31;99746.34;;;10.28;100.00
53908;BME280;40469;47.998;7.794;2023-01-05T00:11:56;99745.53;;;10.32;100.00
53908;BME280;40469;47.998;7.794;2023-01-05T00:14:40;99750.72;;;10.29;100.00
53908;BME280;40469;47.998;7.794;2023-01-05T00:17:34;99750.72;;;10.28;100.00
53908;BME280;40469;47.998;7.794;2023-01-05T00:20:20;99766.41;;;10.34;100.00
53908;BME280;40469;47.998;7.794;2023-01-05T00:23:05;99739.41;;;10.30;100.00
53908;BME280;40469;47.998;7.794;2023-01-05T00:25:35;99736.00;;;10.34;100.00
53908;BME280;40469;47.998;7.794;2023-01-05T00:28:01;99737.69;;;10.29;100.00
53908;BME280;40469;47.998;7.794;2023-01-05T00:30:29;99746.41;;;10.33;100.00
53908;BME280;40469;47.998;7.794;2023-01-05T00:32:55;99744.72;;;10.39;100.00
53908;BME280;40469;47.998;7.794;2023-01-05T00:35:21;99747.28;;;10.41;100.00
53908;BME280;40469;47.998;7.794;2023-01-05T00:37:47;99738.59;;;10.34;100.00
53908;BME280;40469;47.998;7.794;2023-01-05T00:40:16;99750.75;;;10.32;100.00
53908;BME280;40469;47.998;7.794;2023-01-05T00:42:42;99746.41;;;10.37;100.00
53908;BME280;40469;47.998;7.794;2023-01-05T00:45:10;99762.09;;;10.40;100.00
53908;BME280;40469;47.998;7.794;2023-01-05T00:47:35;99764.69;;;10.36;100.00
53908;BME280;40469;47.998;7.794;2023-01-05T00:50:01;99774.31;;;10.41;100.00
53908;BME280;40469;47.998;7.794;2023-01-05T00:52:26;99764.69;;;10.37;100.00
53908;BME280;40469;47.998;7.794;2023-01-05T00:54:51;99762.09;;;10.40;100.00
53908;BME280;40469;47.998;7.794;2023-01-05T00:57:17;99763.84;;;10.40;100.00
53908;BME280;40469;47.998;7.794;2023-01-05T00:59:42;99749.91;;;10.41;100.00
53908;BME280;40469;47.998;7.794;2023-01-05T01:02:07;99755.13;;;10.33;100.00
53908;BME280;40469;47.998;7.794;2023-01-05T01:04:33;99769.03;;;10.37;100.00
53908;BME280;40469;47.998;7.794;2023-01-05T01:06:58;99760.25;;;10.22;100.00
53908;BME280;40469;47.998;7.794;2023-01-05T01:09:24;99760.09;;;9.89;100.00
53908;BME280;40469;47.998;7.794;2023-01-05T01:11:49;99755.63;;;9.67;100.00
53908;BME280;40469;47.998;7.794;2023-01-05T01:14:14;99744.28;;;9.61;100.00
53908;BME280;40469;47.998;7.794;2023-01-05T01:16:40;99747.75;;;9.61;100.00
53908;BME280;40469;47.998;7.794;2023-01-05T01:19:06;99739.06;;;9.61;100.00
53908;BME280;40469;47.998;7.794;2023-01-05T01:21:31;99759.03;;;9.63;100.00
53908;BME280;40469;47.998;7.794;2023-01-05T01:23:56;99753.84;;;9.65;100.00
53908;BME280;40469;47.998;7.794;2023-01-05T01:26:21;99747.81;;;9.71;100.00
53908;BME280;40469;47.998;7.794;2023-01-05T01:28:47;99733.91;;;9.73;100.00
53908;BME280;40469;47.998;7.794;2023-01-05T01:31:12;99736.53;;;9.73;100.00
53908;BME280;40469;47.998;7.794;2023-01-05T01:33:38;99741.72;;;9.72;100.00
53908;BME280;40469;47.998;7.794;2023-01-05T01:36:03;99751.31;;;9.74;100.00
53908;BME280;40469;47.998;7.794;2023-01-05T01:38:29;99735.69;;;9.74;100.00
53908;BME280;40469;47.998;7.794;2023-01-05T01:40:54;99736.56;;;9.81;100.00
53908;BME280;40469;47.998;7.794;2023-01-05T01:43:38;99735.69;;;9.80;100.00
53908;BME280;40469;47.998;7.794;2023-01-05T01:46:04;99742.66;;;9.84;100.00
53908;BME280;40469;47.998;7.794;2023-01-05T01:48:29;99732.22;;;9.81;100.00
53908;BME280;40469;47.998;7.794;2023-01-05T01:50:55;99737.44;;;9.84;100.00
53908;BME280;40469;47.998;7.794;2023-01-05T01:53:43;99726.16;;;9.85;100.00
53908;BME280;40469;47.998;7.794;2023-01-05T01:56:06;99713.09;;;9.84;100.00
53908;BME280;40469;47.998;7.794;2023-01-05T01:58:33;99718.34;;;9.85;100.00
53908;BME280;40469;47.998;7.794;2023-01-05T02:00:58;99736.59;;;9.87;100.00
53908;BME280;40469;47.998;7.794;2023-01-05T02:03:28;99740.94;;;9.90;100.00
53908;BME280;40469;47.998;7.794;2023-01-05T02:05:53;99733.13;;;9.86;100.00
53908;BME280;40469;47.998;7.794;2023-01-05T02:08:19;99733.13;;;9.91;100.00
53908;BME280;40469;47.998;7.794;2023-01-05T02:13:20;99716.59;;;9.87;100.00
53908;BME280;40469;47.998;7.794;2023-01-05T02:15:50;99714.00;;;9.87;100.00
53908;BME280;40469;47.998;7.794;2023-01-05T02:18:39;99696.59;;;9.83;100.00
53908;BME280;40469;47.998;7.794;2023-01-05T02:28:38;99710.50;;;9.85;100.00
53908;BME280;40469;47.998;7.794;2023-01-05T02:31:08;99717.47;;;9.83;100.00
53908;BME280;40469;47.998;7.794;2023-01-05T02:38:33;99687.00;;;9.81;100.00
53908;BME280;40469;47.998;7.794;2023-01-05T02:41:06;99700.06;;;9.84;100.00
53908;BME280;40469;47.998;7.794;2023-01-05T02:43:35;99694.81;;;9.79;100.00
53908;BME280;40469;47.998;7.794;2023-01-05T02:46:00;99694.84;;;9.82;100.00
53908;BME280;40469;47.998;7.794;2023-01-05T02:48:25;99695.72;;;9.86;100.00
53908;BME280;40469;47.998;7.794;2023-01-05T02:51:25;99687.94;;;9.91;100.00
53908;BME280;40469;47.998;7.794;2023-01-05T02:53:44;99693.16;;;9.94;100.00
53908;BME280;40469;47.998;7.794;2023-01-05T02:56:16;99700.06;;;9.85;100.00
53908;BME280;40469;47.998;7.794;2023-01-05T02:58:48;99686.16;;;9.88;100.00
53908;BME280;40469;47.998;7.794;2023-01-05T03:01:16;99694.03;;;9.93;100.00
53908;BME280;40469;47.998;7.794;2023-01-05T03:06:13;99687.03;;;9.84;100.00
53908;BME280;40469;47.998;7.794;2023-01-05T03:08:43;99679.19;;;9.84;100.00
53908;BME280;40469;47.998;7.794;2023-01-05T03:11:09;99681.81;;;9.84;100.00
53908;BME280;40469;47.998;7.794;2023-01-05T03:13:55;99672.28;;;9.89;100.00
53908;BME280;40469;47.998;7.794;2023-01-05T03:16:35;99694.00;;;9.91;100.00
53908;BME280;40469;47.998;7.794;2023-01-05T03:19:02;99691.44;;;9.97;100.00
53908;BME280;40469;47.998;7.794;2023-01-05T03:21:47;99693.16;;;9.97;100.00
53908;BME280;40469;47.998;7.794;2023-01-05T03:24:32;99700.13;;;9.96;100.00
53908;BME280;40469;47.998;7.794;2023-01-05T03:27:16;99695.75;;;9.95;100.00
53908;BME280;40469;47.998;7.794;2023-01-05T03:30:01;99688.81;;;9.94;100.00
53908;BME280;40469;47.998;7.794;2023-01-05T03:32:47;99688.84;;;9.99;100.00
53908;BME280;40469;47.998;7.794;2023-01-05T03:35:33;99684.47;;;9.96;100.00
53908;BME280;40469;47.998;7.794;2023-01-05T03:38:16;99686.19;;;9.90;100.00
53908;BME280;40469;47.998;7.794;2023-01-05T03:40:44;99682.75;;;9.94;100.00
53908;BME280;40469;47.998;7.794;2023-01-05T03:43:10;99673.13;;;9.88;100.00
53908;BME280;40469;47.998;7.794;2023-01-05T03:45:40;99669.69;;;9.94;100.00
53908;BME280;40469;47.998;7.794;2023-01-05T03:48:06;99681.84;;;9.87;100.00
53908;BME280;40469;47.998;7.794;2023-01-05T03:50:32;99686.19;;;9.90;100.00
53908;BME280;40469;47.998;7.794;2023-01-05T03:52:57;99688.78;;;9.85;100.00
53908;BME280;40469;47.998;7.794;2023-01-05T03:55:22;99688.75;;;9.82;100.00
53908;BME280;40469;47.998;7.794;2023-01-05T03:57:48;99693.97;;;9.80;100.00
53908;BME280;40469;47.998;7.794;2023-01-05T04:00:13;99674.88;;;9.83;100.00
53908;BME280;40469;47.998;7.794;2023-01-05T04:02:39;99678.38;;;9.86;100.00
53908;BME280;40469;47.998;7.794;2023-01-05T04:05:04;99677.50;;;9.89;100.00
53908;BME280;40469;47.998;7.794;2023-01-05T04:07:29;99677.47;;;9.87;100.00
53908;BME280;40469;47.998;7.794;2023-01-05T04:09:54;99679.22;;;9.87;100.00
53908;BME280;40469;47.998;7.794;2023-01-05T04:12:20;99694.81;;;9.81;100.00
53908;BME280;40469;47.998;7.794;2023-01-05T04:14:45;99681.84;;;9.89;100.00
53908;BME280;40469;47.998;7.794;2023-01-05T04:17:10;99671.41;;;9.93;100.00
53908;BME280;40469;47.998;7.794;2023-01-05T04:19:35;99680.13;;;9.92;100.00
53908;BME280;40469;47.998;7.794;2023-01-05T04:22:00;99676.63;;;9.90;100.00
53908;BME280;40469;47.998;7.794;2023-01-05T04:24:26;99676.63;;;9.89;100.00
53908;BME280;40469;47.998;7.794;2023-01-05T04:26:51;99670.50;;;9.88;100.00
53908;BME280;40469;47.998;7.794;2023-01-05T04:29:16;99675.78;;;9.94;100.00
53908;BME280;40469;47.998;7.794;2023-01-05T04:31:41;99665.31;;;9.86;100.00
53908;BME280;40469;47.998;7.794;2023-01-05T04:34:06;99672.25;;;9.83;100.00
53908;BME280;40469;47.998;7.794;2023-01-05T04:36:32;99673.13;;;9.85;100.00
53908;BME280;40469;47.998;7.794;2023-01-05T04:38:57;99672.25;;;9.84;100.00
53908;BME280;40469;47.998;7.794;2023-01-05T04:41:22;99682.69;;;9.86;100.00
53908;BME280;40469;47.998;7.794;2023-01-05T04:43:48;99674.88;;;9.87;100.00
53908;BME280;40469;47.998;7.794;2023-01-05T04:46:13;99678.34;;;9.83;100.00
53908;BME280;40469;47.998;7.794;2023-01-05T04:48:38;99681.81;;;9.85;100.00
53908;BME280;40469;47.998;7.794;2023-01-05T04:51:03;99673.16;;;9.86;100.00
53908;BME280;40469;47.998;7.794;2023-01-05T04:53:28;99682.69;;;9.86;100.00
53908;BME280;40469;47.998;7.794;2023-01-05T04:55:54;99682.72;;;9.89;100.00
53908;BME280;40469;47.998;7.794;2023-01-05T04:58:19;99675.72;;;9.88;100.00
53908;BME280;40469;47.998;7.794;2023-01-05T05:00:45;99671.41;;;9.90;100.00
53908;BME280;40469;47.998;7.794;2023-01-05T05:03:10;99667.06;;;9.89;100.00
53908;BME280;40469;47.998;7.794;2023-01-05T05:05:35;99689.66;;;9.89;100.00
53908;BME280;40469;47.998;7.794;2023-01-05T05:08:00;99680.09;;;9.91;100.00
53908;BME280;40469;47.998;7.794;2023-01-05T05:10:26;99677.50;;;9.95;100.00
53908;BME280;40469;47.998;7.794;2023-01-05T05:12:51;99669.72;;;10.01;100.00
53908;BME280;40469;47.998;7.794;2023-01-05T05:15:17;99708.84;;;10.07;100.00
53908;BME280;40469;47.998;7.794;2023-01-05T05:17:42;99675.84;;;10.10;100.00
53908;BME280;40469;47.998;7.794;2023-01-05T05:20:07;99675.78;;;10.02;100.00
53908;BME280;40469;47.998;7.794;2023-01-05T05:22:32;99661.91;;;10.06;100.00
53908;BME280;40469;47.998;7.794;2023-01-05T05:24:58;99684.50;;;10.05;100.00
53908;BME280;40469;47.998;7.794;2023-01-05T05:27:23;99700.19;;;10.12;100.00
53908;BME280;40469;47.998;7.794;2023-01-05T05:29:48;99694.97;;;10.12;100.00
53908;BME280;40469;47.998;7.794;2023-01-05T05:32:13;99700.19;;;10.16;100.00
53908;BME280;40469;47.998;7.794;2023-01-05T05:34:39;99690.59;;;10.07;100.00
53908;BME280;40469;47.998;7.794;2023-01-05T05:37:04;99699.28;;;10.03;100.00
53908;BME280;40469;47.998;7.794;2023-01-05T05:39:29;99696.72;;;10.11;100.00
53908;BME280;40469;47.998;7.794;2023-01-05T05:41:54;99712.38;;;10.08;100.00
53908;BME280;40469;47.998;7.794;2023-01-05T05:44:20;99707.16;;;10.10;100.00
53908;BME280;40469;47.998;7.794;2023-01-05T05:46:45;99716.72;;;10.11;100.00
53908;BME280;40469;47.998;7.794;2023-01-05T05:49:10;99723.69;;;10.15;100.00
53908;BME280;40469;47.998;7.794;2023-01-05T05:51:35;99712.41;;;10.19;100.00
53908;BME280;40469;47.998;7.794;2023-01-05T05:54:00;99708.91;;;10.15;100.00
53908;BME280;40469;47.998;7.794;2023-01-05T05:56:26;99708.06;;;10.21;100.00
53908;BME280;40469;47.998;7.794;2023-01-05T05:58:51;99719.34;;;10.15;100.00
53908;BME280;40469;47.998;7.794;2023-01-05T06:01:16;99715.03;;;10.20;100.00
53908;BME280;40469;47.998;7.794;2023-01-05T06:03:41;99708.06;;;10.22;100.00
53908;BME280;40469;47.998;7.794;2023-01-05T06:06:07;99719.34;;;10.21;100.00
53908;BME280;40469;47.998;7.794;2023-01-05T06:08:32;99722.88;;;10.28;100.00
53908;BME280;40469;47.998;7.794;2023-01-05T06:10:57;99721.97;;;10.24;100.00
53908;BME280;40469;47.998;7.794;2023-01-05T06:13:23;99714.16;;;10.23;100.00
53908;BME280;40469;47.998;7.794;2023-01-05T06:15:48;99723.72;;;10.21;100.00
53908;BME280;40469;47.998;7.794;2023-01-05T06:18:14;99710.69;;;10.22;100.00
53908;BME280;40469;47.998;7.794;2023-01-05T06:20:39;99704.59;;;10.22;100.00
53908;BME280;40469;47.998;7.794;2023-01-05T06:23:05;99714.16;;;10.23;100.00
53908;BME280;40469;47.998;7.794;2023-01-05T06:25:30;99720.22;;;10.17;100.00
53908;BME280;40469;47.998;7.794;2023-01-05T06:27:55;99725.44;;;10.19;100.00
53908;BME280;40469;47.998;7.794;2023-01-05T06:30:21;99725.47;;;10.20;100.00
53908;BME280;40469;47.998;7.794;2023-01-05T06:32:46;99729.81;;;10.24;100.00
53908;BME280;40469;47.998;7.794;2023-01-05T06:35:11;99729.81;;;10.23;100.00
53908;BME280;40469;47.998;7.794;2023-01-05T06:37:36;99735.03;;;10.24;100.00
53908;BME280;40469;47.998;7.794;2023-01-05T06:40:02;99726.31;;;10.19;100.00
53908;BME280;40469;47.998;7.794;2023-01-05T06:42:27;99731.56;;;10.22;100.00
53908;BME280;40469;47.998;7.794;2023-01-05T06:44:52;99723.75;;;10.27;100.00
53908;BME280;40469;47.998;7.794;2023-01-05T06:47:18;99734.19;;;10.25;100.00
53908;BME280;40469;47.998;7.794;2023-01-05T06:49:43;99722.84;;;10.20;100.00
53908;BME280;40469;47.998;7.794;2023-01-05T06:52:08;99730.69;;;10.22;100.00
53908;BME280;40469;47.998;7.794;2023-01-05T06:54:34;99728.06;;;10.19;100.00
53908;BME280;40469;47.998;7.794;2023-01-05T06:56:59;99731.50;;;10.16;100.00
53908;BME280;40469;47.998;7.794;2023-01-05T06:59:24;99739.38;;;10.22;100.00
53908;BME280;40469;47.998;7.794;2023-01-05T07:01:49;99756.75;;;10.23;100.00
53908;BME280;40469;47.998;7.794;2023-01-05T07:04:14;99751.56;;;10.27;100.00
53908;BME280;40469;47.998;7.794;2023-01-05T07:06:40;99742.91;;;10.31;100.00
53908;BME280;40469;47.998;7.794;2023-01-05T07:09:05;99743.75;;;10.30;100.00
53908;BME280;40469;47.998;7.794;2023-01-05T07:11:30;99753.34;;;10.32;100.00
53908;BME280;40469;47.998;7.794;2023-01-05T07:13:56;99736.81;;;10.27;100.00
53908;BME280;40469;47.998;7.794;2023-01-05T07:16:21;99734.16;;;10.24;100.00
53908;BME280;40469;47.998;7.794;2023-01-05T07:18:46;99748.13;;;10.29;100.00
53908;BME280;40469;47.998;7.794;2023-01-05T07:21:11;99741.19;;;10.36;100.00
53908;BME280;40469;47.998;7.794;2023-01-05T07:23:37;99731.63;;;10.33;100.00
53908;BME280;40469;47.998;7.794;2023-01-05T07:26:03;99749.03;;;10.39;100.00
53908;BME280;40469;47.998;7.794;2023-01-05T07:28:28;99752.53;;;10.46;100.00
53908;BME280;40469;47.998;7.794;2023-01-05T07:30:53;99758.63;;;10.44;100.00
53908;BME280;40469;47.998;7.794;2023-01-05T07:33:18;99759.50;;;10.48;100.00
53908;BME280;40469;47.998;7.794;2023-01-05T07:35:44;99771.69;;;10.46;100.00
53908;BME280;40469;47.998;7.794;2023-01-05T07:38:09;99764.75;;;10.45;100.00
53908;BME280;40469;47.998;7.794;2023-01-05T07:40:34;99763.03;;;10.50;100.00
53908;BME280;40469;47.998;7.794;2023-01-05T07:43:00;99769.94;;;10.48;100.00
53908;BME280;40469;47.998;7.794;2023-01-05T07:45:25;99775.19;;;10.51;100.00
53908;BME280;40469;47.998;7.794;2023-01-05T07:47:50;99763.00;;;10.53;100.00
53908;BME280;40469;47.998;7.794;2023-01-05T07:50:15;99756.91;;;10.50;100.00
53908;BME280;40469;47.998;7.794;2023-01-05T07:52:40;99766.50;;;10.52;100.00
53908;BME280;40469;47.998;7.794;2023-01-05T07:55:06;99771.72;;;10.54;100.00
53908;BME280;40469;47.998;7.794;2023-01-05T07:57:31;99777.81;;;10.53;100.00
53908;BME280;40469;47.998;7.794;2023-01-05T07:59:56;99779.56;;;10.54;100.00
53908;BME280;40469;47.998;7.794;2023-01-05T08:02:22;99790.00;;;10.57;100.00
53908;BME280;40469;47.998;7.794;2023-01-05T08:04:47;99794.38;;;10.58;100.00
53908;BME280;40469;47.998;7.794;2023-01-05T08:07:12;99805.69;;;10.58;100.00
53908;BME280;40469;47.998;7.794;2023-01-05T08:09:39;99800.47;;;10.60;100.00
53908;BME280;40469;47.998;7.794;2023-01-05T08:12:23;99806.53;;;10.60;100.00
53908;BME280;40469;47.998;7.794;2023-01-05T08:14:49;99802.22;;;10.62;100.00
53908;BME280;40469;47.998;7.794;2023-01-05T08:17:14;99796.13;;;10.73;100.00
53908;BME280;40469;47.998;7.794;2023-01-05T08:19:39;99797.88;;;10.65;100.00
53908;BME280;40469;47.998;7.794;2023-01-05T08:22:04;99812.69;;;10.69;100.00
53908;BME280;40469;47.998;7.794;2023-01-05T08:24:30;99812.66;;;10.66;100.00
53908;BME280;40469;47.998;7.794;2023-01-05T08:26:55;99818.78;;;10.69;100.00
53908;BME280;40469;47.998;7.794;2023-01-05T08:29:20;99821.38;;;10.65;100.00
53908;BME280;40469;47.998;7.794;2023-01-05T08:31:46;99827.47;;;10.63;100.00
53908;BME280;40469;47.998;7.794;2023-01-05T08:34:11;99834.47;;;10.74;100.00
53908;BME280;40469;47.998;7.794;2023-01-05T08:36:36;99824.88;;;10.70;100.00
53908;BME280;40469;47.998;7.794;2023-01-05T08:39:02;99829.22;;;10.72;100.00
53908;BME280;40469;47.998;7.794;2023-01-05T08:41:29;99840.56;;;10.77;100.00
53908;BME280;40469;47.998;7.794;2023-01-05T08:43:56;99844.03;;;10.78;100.00
53908;BME280;40469;47.998;7.794;2023-01-05T08:46:23;99863.25;;;10.85;100.00
53908;BME280;40469;47.998;7.794;2023-01-05T08:48:52;99863.25;;;10.86;100.00
53908;BME280;40469;47.998;7.794;2023-01-05T08:51:18;99851.06;;;10.88;100.00
53908;BME280;40469;47.998;7.794;2023-01-05T08:53:43;99865.84;;;10.86;100.00
53908;BME280;40469;47.998;7.794;2023-01-05T08:56:09;99872.81;;;10.82;100.00
53908;BME280;40469;47.998;7.794;2023-01-05T08:58:38;99889.31;;;10.74;100.00
53908;BME280;40469;47.998;7.794;2023-01-05T09:01:06;99884.94;;;10.73;100.00
53908;BME280;40469;47.998;7.794;2023-01-05T09:03:32;99880.59;;;10.69;100.00
53908;BME280;40469;47.998;7.794;2023-01-05T09:05:57;99881.44;;;10.69;100.00
53908;BME280;40469;47.998;7.794;2023-01-05T09:08:26;99872.78;;;10.76;100.00
53908;BME280;40469;47.998;7.794;2023-01-05T09:10:51;99881.53;;;10.80;100.00
53908;BME280;40469;47.998;7.794;2023-01-05T09:13:16;99877.22;;;10.93;100.00
53908;BME280;40469;47.998;7.794;2023-01-05T09:15:42;99881.56;;;10.95;100.00
53908;BME280;40469;47.998;7.794;2023-01-05T09:18:07;99878.97;;;11.00;100.00
53908;BME280;40469;47.998;7.794;2023-01-05T09:20:32;99872.00;;;11.00;100.00
53908;BME280;40469;47.998;7.794;2023-01-05T09:22:57;99878.13;;;11.13;100.00
53908;BME280;40469;47.998;7.794;2023-01-05T09:25:23;99885.13;;;11.27;100.00
53908;BME280;40469;47.998;7.794;2023-01-05T09:27:48;99879.94;;;11.39;100.00
53908;BME280;40469;47.998;7.794;2023-01-05T09:30:13;99883.41;;;11.29;100.00
53908;BME280;40469;47.998;7.794;2023-01-05T09:32:40;99889.50;;;11.29;100.00
53908;BME280;40469;47.998;7.794;2023-01-05T09:35:05;99888.66;;;11.43;100.00
53908;BME280;40469;47.998;7.794;2023-01-05T09:37:30;99894.78;;;11.49;100.00
53908;BME280;40469;47.998;7.794;2023-01-05T09:39:56;99890.44;;;11.68;100.00
53908;BME280;40469;47.998;7.794;2023-01-05T09:42:21;99894.81;;;11.88;100.00
53908;BME280;40469;47.998;7.794;2023-01-05T09:44:53;99886.06;;;12.10;100.00
53908;BME280;40469;47.998;7.794;2023-01-05T09:49:49;99880.75;;;12.47;100.00
53908;BME280;40469;47.998;7.794;2023-01-05T09:52:14;99883.34;;;12.64;100.00
53908;BME280;40469;47.998;7.794;2023-01-05T09:54:42;99881.47;;;12.94;100.00
53908;BME280;40469;47.998;7.794;2023-01-05T09:57:15;99883.25;;;12.90;100.00
53908;BME280;40469;47.998;7.794;2023-01-05T09:59:43;99880.69;;;12.70;100.00
53908;BME280;40469;47.998;7.794;2023-01-05T10:02:20;99880.69;;;12.70;100.00
53908;BME280;40469;47.998;7.794;2023-01-05T10:04:48;99870.28;;;12.57;100.00
53908;BME280;40469;47.998;7.794;2023-01-05T10:10:24;99864.09;;;12.67;100.00
53908;BME280;40469;47.998;7.794;2023-01-05T10:12:50;99867.66;;;12.55;100.00
53908;BME280;40469;47.998;7.794;2023-01-05T10:15:35;99871.13;;;12.57;100.00
53908;BME280;40469;47.998;7.794;2023-01-05T10:18:01;99871.13;;;12.57;100.00
53908;BME280;40469;47.998;7.794;2023-01-05T10:20:44;99870.25;;;12.60;100.00
53908;BME280;40469;47.998;7.794;2023-01-05T10:25:54;99854.63;;;12.30;100.00
53908;BME280;40469;47.998;7.794;2023-01-05T10:28:38;99861.56;;;12.45;100.00
53908;BME280;40469;47.998;7.794;2023-01-05T10:31:29;99856.28;;;12.56;100.00
53908;BME280;40469;47.998;7.794;2023-01-05T10:36:45;99856.28;;;12.56;100.00
53908;BME280;40469;47.998;7.794;2023-01-05T10:39:18;99864.19;;;12.44;100.00
53908;BME280;40469;47.998;7.794;2023-01-05T10:46:47;99848.53;;;12.21;100.00
53908;BME280;40469;47.998;7.794;2023-01-05T10:49:20;99845.03;;;12.34;100.00
53908;BME280;40469;47.998;7.794;2023-01-05T10:51:49;99852.84;;;12.45;100.00
53908;BME280;40469;47.998;7.794;2023-01-05T10:54:25;99845.88;;;12.36;100.00
53908;BME280;40469;47.998;7.794;2023-01-05T10:56:53;99838.88;;;12.41;100.00
53908;BME280;40469;47.998;7.794;2023-01-05T10:59:18;99842.41;;;12.29;100.00
53908;BME280;40469;47.998;7.794;2023-01-05T11:01:45;99841.56;;;12.20;100.00
53908;BME280;40469;47.998;7.794;2023-01-05T11:04:13;99836.34;;;12.12;100.00
53908;BME280;40469;47.998;7.794;2023-01-05T11:06:40;99837.22;;;12.12;100.00
53908;BME280;40469;47.998;7.794;2023-01-05T11:11:39;99838.91;;;12.23;100.00
53908;BME280;40469;47.998;7.794;2023-01-05T11:14:05;99834.59;;;12.23;100.00
53908;BME280;40469;47.998;7.794;2023-01-05T11:16:38;99839.00;;;11.97;100.00
53908;BME280;40469;47.998;7.794;2023-01-05T11:19:15;99837.22;;;12.05;100.00
53908;BME280;40469;47.998;7.794;2023-01-05T11:21:42;99839.88;;;12.00;100.00
53908;BME280;40469;47.998;7.794;2023-01-05T11:26:50;99837.22;;;11.79;100.00
53908;BME280;40469;47.998;7.794;2023-01-05T11:29:16;99830.25;;;11.87;100.00
53908;BME280;40469;47.998;7.794;2023-01-05T11:36:54;99833.66;;;12.46;100.00
53908;BME280;40469;47.998;7.794;2023-01-05T11:39:46;99823.94;;;12.63;100.00
53908;BME280;40469;47.998;7.794;2023-01-05T11:42:13;99833.56;;;12.64;100.00
53908;BME280;40469;47.998;7.794;2023-01-05T11:44:42;99822.13;;;12.79;100.00
53908;BME280;40469;47.998;7.794;2023-01-05T11:47:09;99821.91;;;13.16;100.00
53908;BME280;40469;47.998;7.794;2023-01-05T11:49:41;99818.44;;;13.14;100.00
53908;BME280;40469;47.998;7.794;2023-01-05T11:52:22;99808.84;;;13.12;100.00
53908;BME280;40469;47.998;7.794;2023-01-05T11:54:48;99817.47;;;13.27;100.00
53908;BME280;40469;47.998;7.794;2023-01-05T11:57:18;99817.97;;;13.79;100.00
53908;BME280;40469;47.998;7.794;2023-01-05T11:59:44;99812.94;;;13.54;100.00
53908;BME280;40469;47.998;7.794;2023-01-05T12:04:47;99815.59;;;13.50;100.00
53908;BME280;40469;47.998;7.794;2023-01-05T12:09:47;99820.25;;;14.14;100.00
53908;BME280;40469;47.998;7.794;2023-01-05T12:12:25;99810.81;;;13.95;100.00
53908;BME280;40469;47.998;7.794;2023-01-05T12:15:11;99800.34;;;13.90;100.00
53908;BME280;40469;47.998;7.794;2023-01-05T12:18:05;99802.75;;;13.08;100.00
53908;BME280;40469;47.998;7.794;2023-01-05T12:31:18;99795.91;;;12.84;100.00
53908;BME280;40469;47.998;7.794;2023-01-05T12:36:20;99791.66;;;12.60;100.00
53908;BME280;40469;47.998;7.794;2023-01-05T12:49:33;99795.28;;;12.28;100.00
53908;BME280;40469;47.998;7.794;2023-01-05T12:52:09;99798.72;;;12.44;100.00
53908;BME280;40469;47.998;7.794;2023-01-05T12:54:39;99796.13;;;12.35;100.00
53908;BME280;40469;47.998;7.794;2023-01-05T12:57:07;99792.59;;;12.48;100.00
53908;BME280;40469;47.998;7.794;2023-01-05T12:59:43;99795.16;;;12.56;100.00
53908;BME280;40469;47.998;7.794;2023-01-05T13:02:17;99790.78;;;12.55;100.00
53908;BME280;40469;47.998;7.794;2023-01-05T13:07:16;99790.84;;;12.44;100.00
53908;BME280;40469;47.998;7.794;2023-01-05T13:09:54;99790.84;;;12.47;100.00
53908;BME280;40469;47.998;7.794;2023-01-05T13:12:19;99786.44;;;12.57;100.00
53908;BME280;40469;47.998;7.794;2023-01-05T13:14:47;99791.66;;;12.60;100.00
53908;BME280;40469;47.998;7.794;2023-01-05T13:17:31;99780.31;;;12.62;100.00
53908;BME280;40469;47.998;7.794;2023-01-05T13:20:11;99777.63;;;12.73;100.00
53908;BME280;40469;47.998;7.794;2023-01-05T13:22:40;99776.84;;;12.54;100.00
53908;BME280;40469;47.998;7.794;2023-01-05T13:25:13;99791.72;;;12.47;100.00
53908;BME280;40469;47.998;7.794;2023-01-05T13:27:40;99793.47;;;12.44;100.00
53908;BME280;40469;47.998;7.794;2023-01-05T13:30:07;99786.50;;;12.40;100.00
53908;BME280;40469;47.998;7.794;2023-01-05T13:35:32;99787.34;;;12.49;100.00
53908;BME280;40469;47.998;7.794;2023-01-05T13:38:16;99786.50;;;12.46;100.00
53908;BME280;40469;47.998;7.794;2023-01-05T13:54:03;99794.44;;;12.13;100.00
53908;BME280;40469;47.998;7.794;2023-01-05T13:56:30;99790.09;;;12.06;100.00
53908;BME280;40469;47.998;7.794;2023-01-05T13:59:03;99780.53;;;12.01;100.00
53908;BME280;40469;47.998;7.794;2023-01-05T14:01:37;99777.94;;;11.93;100.00
53908;BME280;40469;47.998;7.794;2023-01-05T14:04:03;99782.25;;;12.11;100.00
53908;BME280;40469;47.998;7.794;2023-01-05T14:06:30;99780.50;;;12.16;100.00
53908;BME280;40469;47.998;7.794;2023-01-05T14:08:59;99786.56;;;12.23;100.00
53908;BME280;40469;47.998;7.794;2023-01-05T14:11:26;99787.47;;;12.14;100.00
53908;BME280;40469;47.998;7.794;2023-01-05T14:19:18;99793.59;;;12.08;100.00
53908;BME280;40469;47.998;7.794;2023-01-05T14:26:57;99791.88;;;12.04;100.00
53908;BME280;40469;47.998;7.794;2023-01-05T14:32:07;99798.88;;;11.93;100.00
53908;BME280;40469;47.998;7.794;2023-01-05T14:34:32;99792.75;;;11.95;100.00
53908;BME280;40469;47.998;7.794;2023-01-05T14:36:59;99802.34;;;12.03;100.00
53908;BME280;40469;47.998;7.794;2023-01-05T14:39:27;99792.75;;;11.88;100.00
53908;BME280;40469;47.998;7.794;2023-01-05T14:42:02;99797.09;;;11.89;100.00
53908;BME280;40469;47.998;7.794;2023-01-05T14:44:41;99801.50;;;11.91;100.00